createdAt,value
2022-09-07T00:00:10.086Z,154799.84
2022-09-07T00:02:40.719Z,154768.63
2022-09-07T00:05:12.112Z,154785.53
2022-09-07T00:07:42.486Z,154808.94
2022-09-07T00:10:13.438Z,154790.72
2022-09-07T00:12:46.798Z,154812.88
2022-09-07T00:15:17.754Z,154848.00
2022-09-07T00:17:48.598Z,154754.31
2022-09-07T00:20:21.277Z,154764.72
2022-09-07T00:22:52.194Z,154762.13
2022-09-07T00:25:22.976Z,154780.31
2022-09-07T00:27:56.182Z,154746.53
2022-09-07T00:30:26.750Z,154755.59
2022-09-07T00:32:57.485Z,154733.50
2022-09-07T00:35:28.214Z,154753.03
2022-09-07T00:37:59.388Z,154760.81
2022-09-07T00:40:30.026Z,154769.91
2022-09-07T00:43:03.354Z,154730.88
2022-09-07T00:45:34.034Z,154738.72
2022-09-07T00:48:08.363Z,154773.84
2022-09-07T00:50:43.439Z,154707.50
2022-09-07T00:53:19.915Z,154710.09
2022-09-07T00:55:53.213Z,154736.09
2022-09-07T00:58:27.524Z,154784.22
2022-09-07T01:00:58.692Z,154736.09
2022-09-07T01:03:33.924Z,154676.25
2022-09-07T01:06:09.439Z,154674.97
2022-09-07T01:08:40.394Z,154681.47
2022-09-07T01:11:11.391Z,154634.66
2022-09-07T01:13:47.880Z,154578.72
2022-09-07T01:16:31.890Z,154574.81
2022-09-07T01:19:22.356Z,154555.31
2022-09-07T01:22:03.335Z,154543.63
2022-09-07T01:24:51.332Z,154533.22
2022-09-07T01:27:54.616Z,154531.91
2022-09-07T01:30:28.440Z,154491.59
2022-09-07T01:33:12.947Z,154476.00
2022-09-07T01:35:51.189Z,154450.03
2022-09-07T01:38:27.106Z,154444.81
2022-09-07T01:41:06.113Z,154518.91
2022-09-07T01:43:44.554Z,154516.28
2022-09-07T01:46:22.714Z,154535.81
2022-09-07T01:48:55.839Z,154548.81
2022-09-07T01:51:34.371Z,154515.00
2022-09-07T01:54:11.946Z,154504.63
2022-09-07T01:56:46.940Z,154539.72
2022-09-07T01:59:24.433Z,154539.72
2022-09-07T02:02:04.796Z,154533.22
2022-09-07T02:04:39.688Z,154542.28
2022-09-07T02:07:16.212Z,154508.53
2022-09-07T02:09:52.507Z,154531.91
2022-09-07T02:12:28.167Z,154551.41
2022-09-07T02:15:04.547Z,154572.19
2022-09-07T02:17:42.329Z,154556.59
2022-09-07T02:20:16.984Z,154548.81
2022-09-07T02:22:51.842Z,154534.50
2022-09-07T02:25:27.266Z,154538.44
2022-09-07T02:28:04.064Z,154559.22
2022-09-07T02:30:34.749Z,154547.53
2022-09-07T02:33:08.516Z,154503.31
2022-09-07T02:35:39.523Z,154524.13
2022-09-07T02:38:10.765Z,154534.50
2022-09-07T02:40:41.598Z,154539.72
2022-09-07T02:43:13.666Z,154509.81
2022-09-07T02:45:59.650Z,154504.63
2022-09-07T02:48:46.253Z,154504.63
2022-09-07T02:51:26.481Z,154517.59
2022-09-07T02:54:18.719Z,154508.53
2022-09-07T02:56:57.799Z,154526.69
2022-09-07T02:59:53.694Z,154502.00
2022-09-07T03:02:29.357Z,154509.81
2022-09-07T03:05:08.869Z,154521.50
2022-09-07T03:07:44.490Z,154512.38
2022-09-07T03:10:17.211Z,154534.50
2022-09-07T03:12:49.284Z,154495.50
2022-09-07T03:15:22.797Z,154505.91
2022-09-07T03:17:53.202Z,154517.59
2022-09-07T03:20:27.507Z,154521.50
2022-09-07T03:22:58.087Z,154517.59
2022-09-07T03:25:28.771Z,154504.63
2022-09-07T03:27:59.143Z,154495.50
2022-09-07T03:30:29.972Z,154508.53
2022-09-07T03:33:00.645Z,154489.03
2022-09-07T03:35:33.559Z,154474.72
2022-09-07T03:38:03.960Z,154494.22
2022-09-07T03:40:34.185Z,154457.78
2022-09-07T03:43:04.460Z,154437.00
2022-09-07T03:45:36.027Z,154457.78
2022-09-07T03:48:06.957Z,154473.44
2022-09-07T03:50:40.161Z,154447.41
2022-09-07T03:53:10.807Z,154453.94
2022-09-07T03:55:41.240Z,154405.84
2022-09-07T03:58:11.519Z,154400.63
2022-09-07T04:00:45.860Z,154407.13
2022-09-07T04:03:16.283Z,154407.13
2022-09-07T04:05:49.703Z,154421.41
2022-09-07T04:08:20.417Z,154425.31
2022-09-07T04:10:50.815Z,154435.72
2022-09-07T04:13:21.346Z,154437.00
2022-09-07T04:15:53.984Z,154411.03
2022-09-07T04:18:24.870Z,154421.41
2022-09-07T04:21:02.512Z,154417.50
2022-09-07T04:23:32.980Z,154413.66
2022-09-07T04:26:03.222Z,154422.69
2022-09-07T04:28:33.764Z,154407.13
2022-09-07T04:31:05.956Z,154417.50
2022-09-07T04:33:37.816Z,154426.63
2022-09-07T04:36:12.220Z,154420.13
2022-09-07T04:38:43.101Z,154404.53
2022-09-07T04:41:18.151Z,154413.66
2022-09-07T04:43:50.191Z,154383.75
2022-09-07T04:46:23.163Z,154414.94
2022-09-07T04:48:55.374Z,154417.50
2022-09-07T04:51:30.267Z,154421.41
2022-09-07T04:54:02.694Z,154395.44
2022-09-07T04:56:33.521Z,154430.53
2022-09-07T04:59:05.166Z,154422.69
2022-09-07T05:01:35.666Z,154457.78
2022-09-07T05:04:08.168Z,154412.31
2022-09-07T05:06:41.667Z,154429.25
2022-09-07T05:09:11.654Z,154459.13
2022-09-07T05:11:42.260Z,154470.81
2022-09-07T05:14:14.137Z,154494.22
2022-09-07T05:16:44.757Z,154509.81
2022-09-07T05:19:16.744Z,154517.59
2022-09-07T05:21:50.246Z,154547.53
2022-09-07T05:24:20.843Z,154557.94
2022-09-07T05:26:52.519Z,154538.44
2022-09-07T05:32:14.163Z,154585.22
2022-09-07T05:34:46.050Z,154580.00
2022-09-07T05:37:20.412Z,154543.63
2022-09-07T05:39:52.698Z,154551.41
2022-09-07T05:42:23.190Z,154563.13
2022-09-07T05:44:53.521Z,154560.50
2022-09-07T05:47:23.951Z,154591.75
2022-09-07T05:49:57.048Z,154621.66
2022-09-07T05:52:30.201Z,154625.56
2022-09-07T05:55:19.294Z,154671.06
2022-09-07T05:57:51.302Z,154660.66
2022-09-07T06:00:22.659Z,154671.06
2022-09-07T06:02:53.113Z,154694.50
2022-09-07T06:05:23.609Z,154729.59
2022-09-07T06:07:56.859Z,154750.41
2022-09-07T06:13:14.311Z,154767.34
2022-09-07T06:15:45.717Z,154795.97
2022-09-07T06:18:16.361Z,154798.53
2022-09-07T06:20:46.596Z,154790.72
2022-09-07T06:23:19.939Z,154792.06
2022-09-07T06:25:53.729Z,154767.34
2022-09-07T06:28:24.506Z,154790.72
2022-09-07T06:30:54.884Z,154861.06
2022-09-07T06:33:25.416Z,154866.28
2022-09-07T06:35:59.668Z,154918.28
2022-09-07T06:38:34.349Z,154866.28
2022-09-07T06:43:58.197Z,154928.69
2022-09-07T06:49:20.176Z,154983.34
2022-09-07T06:51:50.630Z,155060.19
2022-09-07T06:57:15.275Z,155129.22
2022-09-07T06:59:45.847Z,155153.91
2022-09-07T07:02:17.000Z,155130.53
2022-09-07T07:04:47.609Z,155228.16
2022-09-07T07:07:22.022Z,155306.31
2022-09-07T07:09:55.516Z,155335.03
2022-09-07T07:14:55.851Z,155361.06
2022-09-07T07:17:27.624Z,155374.13
2022-09-07T07:19:58.577Z,155422.28
2022-09-07T07:22:46.147Z,155484.84
2022-09-07T07:25:20.861Z,155522.66
2022-09-07T07:27:52.386Z,155602.22
2022-09-07T07:30:25.278Z,155593.09
2022-09-07T07:32:58.697Z,155654.34
2022-09-07T07:35:29.137Z,155745.56
2022-09-07T07:43:57.416Z,155878.66
2022-09-07T07:46:28.997Z,155895.59
2022-09-07T07:49:00.282Z,155895.59
2022-09-07T07:51:32.066Z,155907.38
2022-09-07T07:54:22.500Z,155818.66
2022-09-07T07:56:56.025Z,155894.31
2022-09-07T07:59:27.105Z,155773.03
2022-09-07T08:01:57.875Z,155984.34
2022-09-07T08:04:29.917Z,156057.44
2022-09-07T08:07:03.465Z,156078.31
2022-09-07T08:09:37.235Z,155984.34
2022-09-07T08:12:13.318Z,155972.63
2022-09-07T08:14:44.559Z,156073.09
2022-09-07T08:17:16.859Z,155990.91
2022-09-07T08:19:47.710Z,156100.47
2022-09-07T08:22:18.615Z,156163.13
2022-09-07T08:24:49.747Z,156099.16
2022-09-07T08:27:24.801Z,156206.28
2022-09-07T08:29:55.413Z,156221.94
2022-09-07T08:32:25.853Z,156274.13
2022-09-07T08:34:57.443Z,156336.81
2022-09-07T08:37:27.749Z,156372.09
2022-09-07T08:39:58.247Z,156463.50
2022-09-07T08:42:44.553Z,156389.06
2022-09-07T08:45:19.719Z,156477.88
2022-09-07T08:47:53.699Z,156339.38
2022-09-07T08:50:29.640Z,156382.53
2022-09-07T08:53:03.612Z,156437.41
2022-09-07T08:55:37.060Z,156489.59
2022-09-07T08:58:32.634Z,156506.63
2022-09-07T09:04:22.416Z,156671.28
2022-09-07T09:07:09.103Z,156673.84
2022-09-07T09:09:58.545Z,156713.06
2022-09-07T09:12:37.877Z,156795.47
2022-09-07T09:15:21.403Z,156779.78
2022-09-07T09:17:56.877Z,156758.84
2022-09-07T09:20:34.102Z,156744.50
2022-09-07T09:23:13.606Z,156808.50
2022-09-07T09:25:50.160Z,156816.38
2022-09-07T09:28:20.847Z,156730.13
2022-09-07T09:30:55.717Z,156822.91
2022-09-07T09:33:27.639Z,156917.06
2022-09-07T09:35:59.350Z,156921.00
2022-09-07T09:38:39.661Z,157017.72
2022-09-07T09:41:12.427Z,156996.81
2022-09-07T09:43:47.612Z,157000.75
2022-09-07T09:46:28.870Z,156982.44
2022-09-07T09:49:02.599Z,157038.66
2022-09-07T09:54:29.838Z,156969.41
2022-09-07T09:56:59.761Z,157093.63
2022-09-07T10:05:38.027Z,157160.34
2022-09-07T10:08:19.973Z,157246.72
2022-09-07T10:10:55.678Z,157274.22
2022-09-07T10:13:28.405Z,157185.22
2022-09-07T10:16:00.552Z,157230.97
2022-09-07T10:18:39.495Z,157253.25
2022-09-07T10:21:28.527Z,157338.28
2022-09-07T10:24:02.929Z,157352.69
2022-09-07T10:26:35.887Z,157312.13
2022-09-07T10:29:16.744Z,157326.53
2022-09-07T10:32:00.024Z,157275.53
2022-09-07T10:34:42.885Z,157327.84
2022-09-07T10:37:17.165Z,157275.53
2022-09-07T10:40:10.866Z,157289.91
2022-09-07T10:43:20.564Z,157312.13
2022-09-07T10:45:44.545Z,157372.31
2022-09-07T10:48:24.683Z,157441.75
2022-09-07T10:51:09.837Z,157535.97
2022-09-07T10:54:29.957Z,157422.09
2022-09-07T10:56:48.286Z,157501.94
2022-09-07T11:02:29.426Z,157394.59
2022-09-07T11:05:11.414Z,157465.31
2022-09-07T11:08:03.488Z,157454.84
2022-09-07T11:10:44.925Z,157541.22
2022-09-07T11:13:19.743Z,157498.00
2022-09-07T11:15:56.521Z,157580.56
2022-09-07T11:18:31.212Z,157601.47
2022-09-07T11:21:05.457Z,157545.16
2022-09-07T11:23:45.222Z,157584.50
2022-09-07T11:26:20.324Z,157597.53
2022-09-07T11:31:48.762Z,157444.38
2022-09-07T11:34:25.208Z,157488.84
2022-09-07T11:37:01.851Z,157462.66
2022-09-07T11:39:42.120Z,157504.59
2022-09-07T11:45:19.684Z,157655.19
2022-09-07T11:47:56.293Z,157681.34
2022-09-07T11:50:27.774Z,157715.41
2022-09-07T11:53:02.098Z,157677.41
2022-09-07T11:55:39.971Z,157766.53
2022-09-07T11:58:28.882Z,157808.41
2022-09-07T12:01:12.798Z,157750.81
2022-09-07T12:04:12.087Z,157742.94
2022-09-07T12:07:14.712Z,157850.34
2022-09-07T12:10:02.977Z,157936.84
2022-09-07T12:12:59.492Z,157854.25
2022-09-07T12:15:38.907Z,157843.78
2022-09-07T12:18:20.098Z,157833.28
2022-09-07T12:20:51.918Z,157774.34
2022-09-07T12:23:28.301Z,157740.34
2022-09-07T12:26:36.075Z,157770.47
2022-09-07T12:29:22.754Z,157783.53
2022-09-07T12:31:58.683Z,157725.94
2022-09-07T12:34:58.109Z,157736.41
2022-09-07T12:37:45.946Z,157757.34
2022-09-07T12:40:49.004Z,157867.34
2022-09-07T12:43:49.048Z,157875.28
2022-09-07T12:46:39.260Z,157964.34
2022-09-07T12:49:18.482Z,158048.25
2022-09-07T12:52:00.917Z,158081.03
2022-09-07T12:54:40.319Z,157856.88
2022-09-07T12:57:30.119Z,157788.75
2022-09-07T13:00:09.323Z,157770.47
2022-09-07T13:03:06.845Z,157835.94
2022-09-07T13:05:52.875Z,157986.63
2022-09-07T13:08:41.818Z,158052.19
2022-09-07T13:11:20.099Z,158099.34
2022-09-07T13:14:10.848Z,157966.97
2022-09-07T13:20:02.775Z,157740.34
2022-09-07T13:23:00.712Z,157825.47
2022-09-07T13:25:48.345Z,157849.00
2022-09-07T13:28:34.843Z,157875.28
2022-09-07T13:31:32.399Z,158018.06
2022-09-07T13:34:02.914Z,158084.97
2022-09-07T13:36:41.900Z,157998.41
2022-09-07T13:39:18.688Z,157961.75
2022-09-07T13:41:54.382Z,157919.84
2022-09-07T13:44:27.860Z,157948.63
2022-09-07T13:47:08.090Z,157972.22
2022-09-07T13:49:55.040Z,158120.34
2022-09-07T13:52:34.425Z,158083.63
2022-09-07T13:55:29.482Z,158107.22
2022-09-07T13:58:14.794Z,158095.44
2022-09-07T14:00:56.837Z,158070.53
2022-09-07T14:03:29.266Z,158020.69
2022-09-07T14:06:34.309Z,157981.41
2022-09-07T14:09:07.898Z,158024.59
2022-09-07T14:11:49.156Z,157927.66
2022-09-07T14:14:22.339Z,157855.59
2022-09-07T14:16:57.544Z,157832.00
2022-09-07T14:19:30.458Z,157867.34
2022-09-07T14:22:06.917Z,157888.34
2022-09-07T14:24:39.309Z,157862.13
2022-09-07T14:27:25.631Z,157898.84
2022-09-07T14:29:56.448Z,157931.59
2022-09-07T14:32:28.431Z,157877.88
2022-09-07T14:35:01.501Z,157891.00
2022-09-07T14:37:33.478Z,157775.69
2022-09-07T14:40:04.775Z,157763.88
2022-09-07T14:42:45.867Z,157783.53
2022-09-07T14:45:37.811Z,157722.00
2022-09-07T14:48:32.335Z,157674.81
2022-09-07T14:51:29.759Z,157711.47
2022-09-07T14:54:03.352Z,157672.19
2022-09-07T14:56:40.512Z,157737.69
2022-09-07T14:59:37.764Z,157720.63
2022-09-07T15:02:28.712Z,157757.34
2022-09-07T15:05:25.829Z,157762.56
2022-09-07T15:07:58.536Z,157803.19
2022-09-07T15:10:41.642Z,157794.00
2022-09-07T15:13:29.196Z,157786.16
2022-09-07T15:16:04.918Z,157748.16
2022-09-07T15:18:54.984Z,157712.75
2022-09-07T15:21:29.754Z,157625.06
2022-09-07T15:24:01.546Z,157576.59
2022-09-07T15:29:26.092Z,157533.34
2022-09-07T15:32:04.847Z,157487.53
2022-09-07T15:34:35.510Z,157445.69
2022-09-07T15:38:01.060Z,157407.72
2022-09-07T15:39:56.401Z,157380.19
2022-09-07T15:45:19.522Z,157354.00
2022-09-07T15:47:56.590Z,157356.63
2022-09-07T15:50:31.015Z,157351.41
2022-09-07T15:53:02.801Z,157337.00
2022-09-07T15:55:38.555Z,157317.38
2022-09-07T15:58:12.107Z,157312.13
2022-09-07T16:00:44.474Z,157301.69
2022-09-07T16:03:17.965Z,157285.97
2022-09-07T16:05:49.320Z,157253.25
2022-09-07T16:08:27.596Z,157251.97
2022-09-07T16:11:12.504Z,157241.44
2022-09-07T16:13:46.921Z,157211.34
2022-09-07T16:16:18.394Z,157187.78
2022-09-07T16:18:54.019Z,157162.94
2022-09-07T16:21:32.914Z,157140.72
2022-09-07T16:24:03.321Z,157127.63
2022-09-07T16:26:33.725Z,157100.19
2022-09-07T16:29:04.258Z,157087.09
2022-09-07T16:31:37.617Z,157063.50
2022-09-07T16:34:11.056Z,157060.91
2022-09-07T16:36:41.463Z,157029.53
2022-09-07T16:39:12.720Z,157024.31
2022-09-07T16:41:44.847Z,157011.22
2022-09-07T16:44:15.226Z,156985.06
2022-09-07T16:46:45.996Z,156964.13
2022-09-07T16:49:19.786Z,156949.78
2022-09-07T16:51:50.246Z,156915.78
2022-09-07T16:54:21.172Z,156890.88
2022-09-07T16:56:52.743Z,156886.97
2022-09-07T16:59:27.257Z,156869.97
2022-09-07T17:01:57.434Z,156845.16
2022-09-07T17:04:30.549Z,156817.66
2022-09-07T17:07:00.740Z,156812.44
2022-09-07T17:09:31.124Z,156799.41
2022-09-07T17:12:01.673Z,156765.41
2022-09-07T17:14:32.128Z,156753.63
2022-09-07T17:17:02.415Z,156739.25
2022-09-07T17:19:35.600Z,156710.47
2022-09-07T17:22:07.198Z,156692.16
2022-09-07T17:24:39.308Z,156672.56
2022-09-07T17:27:10.685Z,156650.38
2022-09-07T17:29:43.221Z,156629.44
2022-09-07T17:32:28.663Z,156604.66
2022-09-07T17:35:01.887Z,156582.41
2022-09-07T17:37:34.747Z,156579.84
2022-09-07T17:40:06.878Z,156547.16
2022-09-07T17:45:36.674Z,156506.63
2022-09-07T17:48:09.135Z,156484.38
2022-09-07T17:50:43.271Z,156480.50
2022-09-07T17:53:14.762Z,156450.47
2022-09-07T17:55:48.263Z,156403.44
2022-09-07T17:58:19.657Z,156410.00
2022-09-07T18:00:52.921Z,156411.28
2022-09-07T18:03:23.936Z,156407.34
2022-09-07T18:05:59.449Z,156383.84
2022-09-07T18:08:31.347Z,156374.69
2022-09-07T18:14:01.563Z,156362.94
2022-09-07T18:16:34.552Z,156366.88
2022-09-07T18:19:09.491Z,156349.81
2022-09-07T18:21:45.538Z,156336.81
2022-09-07T18:24:20.116Z,156332.88
2022-09-07T18:26:52.955Z,156312.00
2022-09-07T18:29:29.514Z,156314.59
2022-09-07T18:32:02.669Z,156314.59
2022-09-07T18:34:32.947Z,156314.59
2022-09-07T18:37:07.024Z,156300.25
2022-09-07T18:39:40.502Z,156284.56
2022-09-07T18:42:11.949Z,156216.72
2022-09-07T18:47:36.776Z,156161.84
2022-09-07T18:50:08.152Z,156151.41
2022-09-07T18:55:33.713Z,156118.75
2022-09-07T18:58:08.682Z,156121.38
2022-09-07T19:00:41.555Z,156120.03
2022-09-07T19:03:12.427Z,156107.03
2022-09-07T19:05:52.881Z,156086.16
2022-09-07T19:08:26.453Z,156077.00
2022-09-07T19:11:07.529Z,156101.81
2022-09-07T19:13:47.791Z,156060.03
2022-09-07T19:16:25.731Z,156019.56
2022-09-07T19:19:00.840Z,156037.84
2022-09-07T19:21:33.848Z,156005.22
2022-09-07T19:24:14.535Z,155966.06
2022-09-07T19:26:47.131Z,155967.38
2022-09-07T19:29:42.057Z,155972.63
2022-09-07T19:32:13.479Z,155981.78
2022-09-07T19:34:54.764Z,155979.13
2022-09-07T19:37:29.395Z,155913.88
2022-09-07T19:40:02.836Z,155885.16
2022-09-07T19:42:33.423Z,155810.81
2022-09-07T19:45:03.760Z,155879.94
2022-09-07T19:47:36.322Z,155833.00
2022-09-07T19:50:06.811Z,155793.88
2022-09-07T19:52:38.791Z,155769.09
2022-09-07T19:55:12.944Z,155819.97
2022-09-07T19:57:48.095Z,155810.81
2022-09-07T20:00:19.891Z,155829.09
2022-09-07T20:02:52.644Z,155799.09
2022-09-07T20:05:24.212Z,155745.56
2022-09-07T20:07:54.507Z,155775.63
2022-09-07T20:10:28.246Z,155759.91
2022-09-07T20:12:58.742Z,155743.00
2022-09-07T20:15:30.480Z,155707.78
2022-09-07T20:18:04.651Z,155713.00
2022-09-07T20:20:36.845Z,155703.88
2022-09-07T20:23:07.390Z,155628.28
2022-09-07T20:25:41.058Z,155600.88
2022-09-07T20:28:12.895Z,155583.94
2022-09-07T20:30:46.612Z,155573.53
2022-09-07T20:33:17.190Z,155551.34
2022-09-07T20:35:48.170Z,155530.44
2022-09-07T20:38:20.949Z,155500.47
2022-09-07T20:40:59.003Z,155505.69
2022-09-07T20:43:30.635Z,155458.81
2022-09-07T20:46:04.482Z,155462.72
2022-09-07T20:48:35.159Z,155465.31
2022-09-07T20:51:08.339Z,155461.38
2022-09-07T20:53:39.780Z,155460.09
2022-09-07T20:56:15.577Z,155450.97
2022-09-07T20:58:47.347Z,155447.03
2022-09-07T21:01:21.530Z,155450.97
2022-09-07T21:03:55.556Z,155452.25
2022-09-07T21:06:27.045Z,155456.16
2022-09-07T21:08:59.554Z,155456.16
2022-09-07T21:11:35.159Z,155473.13
2022-09-07T21:14:07.154Z,155487.44
2022-09-07T21:16:37.958Z,155534.38
2022-09-07T21:19:11.433Z,155543.50
2022-09-07T21:21:42.525Z,155539.59
2022-09-07T21:24:20.338Z,155540.88
2022-09-07T21:26:54.594Z,155535.66
2022-09-07T21:29:26.664Z,155551.34
2022-09-07T21:31:58.048Z,155561.75
2022-09-07T21:34:29.255Z,155546.09
2022-09-07T21:36:59.739Z,155538.28
2022-09-07T21:39:30.550Z,155525.25
2022-09-07T21:42:04.746Z,155521.31
2022-09-07T21:44:37.009Z,155531.75
2022-09-07T21:47:07.910Z,155527.88
2022-09-07T21:49:38.407Z,155534.38
2022-09-07T21:52:08.710Z,155542.16
2022-09-07T21:54:38.986Z,155525.25
2022-09-07T21:57:12.173Z,155522.66
2022-09-07T21:59:42.557Z,155517.41
2022-09-07T22:02:16.441Z,155508.31
2022-09-07T22:04:47.072Z,155496.56
2022-09-07T22:07:17.958Z,155488.78
2022-09-07T22:09:48.314Z,155480.94
2022-09-07T22:12:21.524Z,155484.84
2022-09-07T22:14:52.154Z,155492.69
2022-09-07T22:17:22.582Z,155504.41
2022-09-07T22:19:52.869Z,155496.56
2022-09-07T22:22:23.266Z,155488.78
2022-09-07T22:24:53.511Z,155491.34
2022-09-07T22:27:26.828Z,155488.78
2022-09-07T22:29:56.950Z,155495.28
2022-09-07T22:32:28.002Z,155503.09
2022-09-07T22:34:58.191Z,155520.03
2022-09-07T22:37:28.705Z,155516.09
2022-09-07T22:39:59.096Z,155585.25
2022-09-07T22:42:32.322Z,155634.78
2022-09-07T22:45:02.586Z,155625.63
2022-09-07T22:47:32.988Z,155623.06
2022-09-07T22:50:03.340Z,155604.78
2022-09-07T22:52:33.719Z,155604.78
2022-09-07T22:55:04.609Z,155649.13
2022-09-07T22:57:38.701Z,155654.34
2022-09-07T23:00:12.110Z,155676.47
2022-09-07T23:02:42.446Z,155692.16
2022-09-07T23:05:13.477Z,155727.34
2022-09-07T23:07:43.818Z,155761.22
2022-09-07T23:10:14.320Z,155746.91
2022-09-07T23:12:47.777Z,155722.13
2022-09-07T23:15:19.187Z,155690.81
2022-09-07T23:17:49.973Z,155728.66
2022-09-07T23:20:20.925Z,155720.81
2022-09-07T23:22:51.233Z,155735.16
2022-09-07T23:25:22.438Z,155769.09
2022-09-07T23:27:56.399Z,155741.69
2022-09-07T23:30:27.379Z,155727.34
2022-09-07T23:32:58.428Z,155702.56
2022-09-07T23:35:28.882Z,155651.69
2022-09-07T23:37:59.844Z,155664.75
2022-09-07T23:40:32.174Z,155641.28
2022-09-07T23:43:05.976Z,155645.19
2022-09-07T23:45:37.093Z,155613.94
2022-09-07T23:48:07.799Z,155610.00
2022-09-07T23:50:38.142Z,155598.28
2022-09-07T23:53:08.714Z,155616.50
2022-09-07T23:55:39.139Z,155594.38
2022-09-07T23:58:12.952Z,155574.81
